Latest Weather Observations for Forbes

IDN60801

Issued at 1:05 pm EST Saturday 23 August 2014 (issued every 30 minutes, with the page automatically refreshed every 10 minutes)

About weather observations | Map of weather stations | Latest weather observations for NSW | Other Formats
Station Details ID: 065103 Name: FORBES AIRPORT AWS Lat: -33.36 Lon: 147.92 Height: 230.4 m
Data from the previous 72 hours. | See also: Recent months at Forbes
Date/Time
EST
Temp
°C
App
Temp
°C
Dew
Point
Rel
Hum
%
Delta-T
°C
Wind Press
QNH
hPa
Press
MSL
hPa
Rain
since 9 am
mm
Dir
 
Spd
km/h
Gust
km/h
Spd
kts
Gust
kts
23/01:00pm 17.8 15.7 8.1 53 5.0 SE 9 17 5 9 1027.6 1027.9 0.0
23/12:30pm 17.4 15.9 9.3 59 4.2 ESE 7 15 4 8 1027.9 - 0.0
23/12:00pm 16.7 14.8 9.1 61 3.9 SSE 9 15 5 8 1028.5 1028.8 0.0
23/11:30am 16.5 15.2 10.1 66 3.4 SE 7 11 4 6 1028.9 - 0.0
23/11:00am 16.2 15.1 9.8 66 3.4 ESE 6 11 3 6 1029.4 1029.7 0.0
23/10:30am 15.3 13.8 9.2 67 3.2 E 7 15 4 8 1029.7 - 0.0
23/10:00am 14.0 11.9 8.2 68 2.9 ESE 9 15 5 8 1029.7 1030.0 0.0
23/09:30am 13.0 10.9 8.3 73 2.4 SE 9 13 5 7 1029.8 - 0.0
23/09:00am 12.1 9.6 8.2 77 1.9 ESE 11 17 6 9 1029.8 1030.1 0.0
23/08:30am 10.6 8.8 7.8 83 1.4 ESE 7 11 4 6 1030.0 - 0.0
23/08:00am 9.1 6.4 7.5 90 0.8 ESE 11 17 6 9 1029.6 1029.9 0.0
23/07:30am 7.7 5.3 7.0 95 0.3 ESE 9 11 5 6 1029.5 - 0.0
23/07:00am 6.3 3.7 6.0 98 0.1 ESE 9 11 5 6 1029.2 1029.5 0.0
23/06:30am 5.2 2.0 5.1 99 0.0 ESE 11 13 6 7 1028.8 - 0.0
23/06:00am 3.7 2.3 3.6 99 0.0 CALM 0 0 0 0 1028.7 1029.0 0.0
23/05:30am 3.2 1.7 2.8 97 0.2 CALM 0 0 0 0 1028.4 - 0.0
23/05:00am 3.8 2.4 3.4 97 0.2 CALM 0 0 0 0 1028.1 1028.4 0.0
23/04:30am 5.1 4.0 5.0 99 0.0 CALM 0 0 0 0 1027.9 - 0.0
23/04:00am 4.3 3.0 4.2 99 0.0 CALM 0 0 0 0 1028.0 1028.3 0.0
23/03:30am 3.4 2.0 3.3 99 0.0 CALM 0 0 0 0 1027.9 - 0.0
23/03:00am 3.6 2.2 3.5 99 0.0 CALM 0 7 0 4 1027.9 1028.2 0.0
23/02:30am 3.6 2.1 3.2 97 0.2 CALM 0 0 0 0 1028.3 - 0.0
23/02:00am 4.8 3.6 4.7 99 0.0 CALM 0 0 0 0 1028.3 1028.6 0.0
23/01:30am 4.8 3.6 4.5 98 0.1 CALM 0 0 0 0 1028.4 - 0.0
23/01:00am 4.7 3.4 4.0 95 0.3 CALM 0 0 0 0 1028.6 1028.9 0.0
23/12:30am 6.2 5.3 5.9 98 0.1 CALM 0 0 0 0 1028.5 - 0.0
23/12:00am 6.2 5.3 5.9 98 0.1 ESE 0 0 0 0 1028.4 1028.7 0.0
 
Date/Time
EST
Temp
°C
App
Temp
°C
Dew
Point
Rel
Hum
%
Delta-T
°C
Wind Press
QNH
hPa
Press
MSL
hPa
Rain
since 9 am
mm
Dir
 
Spd
km/h
Gust
km/h
Spd
kts
Gust
kts
22/11:30pm 6.0 5.0 5.7 98 0.1 CALM 0 0 0 0 1028.5 - 0.0
22/11:00pm 6.1 5.1 5.5 96 0.3 CALM 0 0 0 0 1028.6 1028.9 0.0
22/10:30pm 6.6 5.6 5.7 94 0.4 E 0 0 0 0 1028.5 - 0.0
22/10:00pm 7.8 6.3 6.7 93 0.5 E 4 9 2 5 1028.6 1028.9 0.0
22/09:30pm 8.1 6.3 5.4 83 1.2 E 4 9 2 5 1028.5 - 0.0
22/09:00pm 10.4 8.1 7.5 82 1.4 ESE 9 13 5 7 1028.3 1028.6 0.0
22/08:30pm 10.6 8.0 7.8 83 1.4 SE 11 15 6 8 1028.1 - 0.0
22/08:00pm 8.9 6.5 7.0 88 0.9 SSE 9 11 5 6 1027.9 1028.2 0.0
22/07:30pm 11.1 8.5 7.8 80 1.6 SE 11 11 6 6 1027.7 - 0.0
22/07:00pm 12.2 9.7 8.1 76 2.0 SE 11 13 6 7 1027.5 1027.8 0.0
22/06:30pm 12.4 10.0 8.7 78 1.9 SE 11 13 6 7 1027.2 - 0.0
22/06:00pm 13.2 11.4 9.3 77 2.0 SE 9 9 5 5 1027.2 1027.5 0.0
22/05:30pm 14.0 12.2 9.6 75 2.3 S 9 11 5 6 1027.0 - 0.0
22/05:00pm 16.6 14.5 9.8 64 3.6 SSE 11 13 6 7 1026.6 1027.0 0.0
22/04:30pm 17.4 14.8 9.3 59 4.3 SE 13 17 7 9 1026.3 - 0.0
22/04:00pm 17.8 16.2 10.2 61 4.1 S 9 13 5 7 1026.2 1026.6 0.0
22/03:30pm 17.6 16.3 9.8 60 4.2 SW 7 9 4 5 1026.4 - 0.0
22/03:00pm 16.9 17.2 11.0 68 3.2 CALM 0 6 0 3 1026.6 1027.0 0.0
22/02:30pm 16.8 15.8 10.2 65 3.5 SSE 6 13 3 7 1026.6 - 0.0
22/02:00pm 17.4 16.1 9.1 58 4.3 ESE 6 11 3 6 1027.1 1027.4 0.0
22/01:30pm 17.1 16.6 9.5 61 4.0 WSW 2 7 1 4 1027.3 - 0.0
22/01:00pm 17.0 15.4 8.7 58 4.3 NNE 7 13 4 7 1027.7 1028.0 0.0
22/12:30pm 17.8 16.2 8.1 53 5.0 NNE 6 13 3 7 1028.2 - 0.0
22/12:00pm 16.4 14.5 9.1 62 3.8 SE 9 15 5 8 1028.8 1029.1 0.0
22/11:30am 16.5 13.9 9.2 62 3.8 E 13 20 7 11 1029.2 - 0.0
22/11:00am 15.9 12.9 9.1 64 3.5 E 15 20 8 11 1029.5 1029.8 0.0
22/10:30am 15.0 11.8 8.5 65 3.3 E 15 24 8 13 1029.9 - 0.0
22/10:00am 14.4 10.9 8.6 68 2.9 ESE 17 22 9 12 1030.1 1030.5 0.0
22/09:30am 13.3 10.0 8.0 70 2.7 ESE 15 28 8 15 1030.1 - 0.0
22/09:00am 12.0 9.0 7.7 75 2.1 ESE 13 17 7 9 1030.1 1030.5 0.0
22/08:30am 10.2 7.1 7.3 82 1.4 SE 13 17 7 9 1030.0 - 0.0
22/08:00am 8.9 6.0 6.5 85 1.1 ESE 11 17 6 9 1029.7 1030.0 0.0
22/07:30am 7.6 4.2 5.9 89 0.8 ESE 13 17 7 9 1029.3 - 0.0
22/07:00am 6.1 2.9 5.1 93 0.4 SE 11 13 6 7 1029.0 1029.3 0.0
22/06:30am 5.3 2.4 4.4 94 0.4 ESE 9 13 5 7 1028.6 - 0.0
22/06:00am 6.0 2.7 4.8 92 0.5 ESE 11 15 6 8 1028.3 1028.6 0.0
22/05:30am 6.0 2.8 5.0 93 0.4 SE 11 13 6 7 1028.1 - 0.0
22/05:00am 6.1 2.9 5.2 94 0.4 ESE 11 13 6 7 1028.0 1028.3 0.0
22/04:30am 6.1 3.3 5.1 93 0.4 ESE 9 11 5 6 1027.9 - 0.0
22/04:00am 5.5 3.0 4.8 95 0.3 ESE 7 11 4 6 1027.8 1028.1 0.0
22/03:30am 5.5 4.3 4.5 93 0.4 CALM 0 0 0 0 1027.7 - 0.0
22/03:00am 6.4 5.3 5.2 92 0.5 CALM 0 0 0 0 1027.7 1028.0 0.0
22/02:30am 6.9 5.9 5.8 93 0.5 CALM 0 0 0 0 1027.9 - 0.0
22/02:00am 6.0 4.5 4.8 92 0.5 SSE 2 7 1 4 1028.1 1028.4 0.0
22/01:30am 6.7 4.4 4.9 88 0.8 NNE 6 9 3 5 1028.2 - 0.0
22/01:00am 9.0 5.3 6.3 83 1.3 ESE 15 19 8 10 1028.0 1028.3 0.0
22/12:30am 8.8 5.1 6.2 84 1.2 ESE 15 19 8 10 1028.0 - 0.0
22/12:00am 9.2 5.2 6.6 84 1.2 ESE 17 20 9 11 1028.0 1028.3 0.0
 
Date/Time
EST
Temp
°C
App
Temp
°C
Dew
Point
Rel
Hum
%
Delta-T
°C
Wind Press
QNH
hPa
Press
MSL
hPa
Rain
since 9 am
mm
Dir
 
Spd
km/h
Gust
km/h
Spd
kts
Gust
kts
21/11:30pm 9.4 5.4 6.8 84 1.2 ESE 17 24 9 13 1027.9 - 0.0
21/11:00pm 9.6 5.7 6.9 83 1.3 ESE 17 24 9 13 1027.8 1028.1 0.0
21/10:30pm 10.1 5.8 7.0 81 1.5 ESE 19 26 10 14 1027.7 - 0.0
21/10:00pm 10.4 5.9 6.9 79 1.7 ESE 20 26 11 14 1027.6 1027.9 0.0
21/09:30pm 11.0 6.7 6.9 76 2.0 ESE 19 28 10 15 1027.6 - 0.0
21/09:00pm 11.4 7.1 7.1 75 2.1 ESE 19 26 10 14 1027.3 1027.6 0.0
21/08:30pm 10.9 7.0 7.2 78 1.8 SE 17 20 9 11 1027.1 - 0.0
21/08:00pm 11.0 7.1 7.3 78 1.8 SE 17 19 9 10 1026.8 1027.2 0.0
21/07:30pm 11.4 8.0 7.5 77 1.9 SE 15 17 8 9 1026.6 - 0.0
21/07:00pm 11.9 8.9 7.8 76 2.0 SE 13 17 7 9 1026.3 1026.7 0.0
21/06:30pm 12.7 10.2 8.2 74 2.3 SE 11 15 6 8 1026.1 - 0.0
21/06:00pm 13.2 10.2 7.6 69 2.8 SE 13 19 7 10 1025.9 1026.2 0.0
21/05:30pm 13.7 11.1 7.9 68 2.9 SE 11 15 6 8 1025.7 - 0.0
21/05:00pm 14.8 11.9 8.1 64 3.4 SE 13 20 7 11 1025.4 1025.7 0.0
21/04:30pm 15.5 12.1 7.8 60 3.9 ESE 15 22 8 12 1025.1 - 0.0
21/04:00pm 16.4 12.9 8.6 60 4.0 SE 17 24 9 13 1025.0 1025.3 0.0
21/03:30pm 17.0 13.4 8.4 57 4.4 SE 17 26 9 14 1024.9 - 0.0
21/03:00pm 16.4 12.2 7.3 55 4.6 ESE 19 30 10 16 1025.0 1025.3 0.0
21/02:30pm 16.8 13.0 9.2 61 4.0 ESE 19 26 10 14 1025.1 - 0.0
21/02:00pm 15.8 12.5 8.1 60 3.9 ESE 15 20 8 11 1025.5 1025.8 0.0
21/01:30pm 15.1 11.0 7.9 62 3.6 SSE 19 20 10 11 1025.7 - 0.0
21/01:00pm 14.9 10.8 6.0 55 4.3 ESE 17 26 9 14 1026.2 1026.6 0.0
21/12:30pm 15.1 11.2 6.9 58 4.1 ESE 17 24 9 13 1026.7 - 0.0
21/12:00pm 14.9 11.0 7.0 59 3.9 SE 17 22 9 12 1027.3 1027.6 0.0
21/11:30am 13.9 9.9 6.5 61 3.6 SE 17 24 9 13 1027.7 - 0.0
21/11:00am 13.3 9.7 6.6 64 3.2 SE 15 20 8 11 1028.2 1028.5 0.0
21/10:30am 13.0 8.9 6.4 64 3.2 SE 17 22 9 12 1028.4 - 0.0
21/10:00am 12.1 9.0 7.2 72 2.4 ESE 13 20 7 11 1028.7 1029.0 0.0
21/09:30am 10.9 6.8 6.3 73 2.2 ESE 17 20 9 11 1028.8 - 0.0
21/09:00am 10.3 6.7 6.8 79 1.7 E 15 20 8 11 1028.9 1029.2 0.0
21/08:30am 9.1 6.0 5.7 79 1.6 E 11 15 6 8 1028.9 - 0.0
21/08:00am 7.9 4.9 5.9 87 0.9 E 11 17 6 9 1028.6 1028.9 0.0
21/07:55am 7.6 4.6 5.9 89 0.8 E 11 15 6 8 1028.5 - 0.0
21/07:30am 2.6 0.6 2.2 97 0.2 W 2 7 1 4 1028.4 - 0.0
21/07:00am 1.8 -1.1 1.5 98 0.1 SSW 6 7 3 4 1027.9 1028.2 0.0
21/06:30am 1.4 -1.6 0.7 95 0.3 SE 6 11 3 6 1027.5 - 0.0
21/06:00am 2.7 -0.7 1.7 93 0.4 SE 9 13 5 7 1027.2 1027.5 0.0
21/05:30am 3.2 -0.2 1.6 89 0.6 SE 9 11 5 6 1026.8 - 0.0
21/05:00am 4.3 0.8 3.3 93 0.4 SE 11 15 6 8 1026.6 1027.0 0.0
21/04:30am 4.3 0.8 3.7 96 0.3 ESE 11 13 6 7 1026.6 - 0.0
21/04:00am 1.7 -0.1 1.0 95 0.3 CALM 0 0 0 0 1026.5 1026.9 0.0
21/03:30am 2.5 0.8 1.6 94 0.4 CALM 0 0 0 0 1026.4 - 0.0
21/03:00am 3.2 1.5 2.0 92 0.5 CALM 0 0 0 0 1026.4 1026.8 0.0
21/02:30am 4.0 1.3 2.7 91 0.5 E 6 7 3 4 1026.4 - 0.0
21/02:00am 4.3 1.1 3.1 92 0.5 ESE 9 11 5 6 1026.2 1026.6 0.0
21/01:30am 4.1 0.9 3.2 94 0.4 ESE 9 13 5 7 1026.3 - 0.0
21/01:00am 4.0 0.7 2.7 91 0.5 E 9 9 5 5 1026.2 1026.6 0.0
21/12:30am 3.8 0.5 2.5 91 0.5 NE 9 13 5 7 1026.1 - 0.0
21/12:00am 5.3 1.5 2.0 79 1.3 ESE 11 13 6 7 1025.7 1026.0 0.0
 
Date/Time
EST
Temp
°C
App
Temp
°C
Dew
Point
Rel
Hum
%
Delta-T
°C
Wind Press
QNH
hPa
Press
MSL
hPa
Rain
since 9 am
mm
Dir
 
Spd
km/h
Gust
km/h
Spd
kts
Gust
kts
20/11:30pm 7.0 2.9 4.3 83 1.2 SSE 15 19 8 10 1025.5 - 0.0
20/11:00pm 6.1 2.3 3.8 85 1.0 SE 13 13 7 7 1025.7 1026.0 0.0
20/10:30pm 7.1 3.5 5.1 87 0.9 SE 13 15 7 8 1025.7 - 0.0
20/10:00pm 4.7 2.6 3.8 94 0.4 SE 4 11 2 6 1025.6 1025.9 0.0
20/09:30pm 4.7 1.9 3.4 91 0.5 SSE 7 9 4 5 1025.6 - 0.0
20/09:00pm 5.9 3.2 3.7 86 0.9 SE 7 9 4 5 1025.4 1025.7 0.0
20/08:30pm 8.8 5.9 4.4 74 2.0 SE 9 11 5 6 1025.2 - 0.0
20/08:00pm 10.1 7.0 5.5 73 2.1 SE 11 15 6 8 1024.9 1025.2 0.0
20/07:30pm 10.5 7.1 6.1 74 2.1 SSE 13 17 7 9 1024.7 - 0.0
20/07:00pm 9.9 6.5 5.7 75 1.9 SSE 13 15 7 8 1024.4 1024.7 0.0
20/06:30pm 10.5 7.9 6.1 74 2.1 ESE 9 11 5 6 1024.2 - 0.0
20/06:00pm 10.0 7.7 7.3 83 1.3 S 9 11 5 6 1024.0 1024.3 0.0
20/05:30pm 12.6 9.6 6.2 65 3.1 SSE 11 13 6 7 1023.7 - 0.0
20/05:00pm 14.3 13.6 7.1 62 3.5 CALM 0 0 0 0 1023.6 1023.9 0.0
20/04:30pm 15.4 12.5 6.4 55 4.4 SE 11 17 6 9 1023.5 - 0.0
20/04:00pm 15.5 11.6 5.4 51 4.8 SSE 15 20 8 11 1023.4 1023.7 0.0
20/03:30pm 15.6 12.1 5.5 51 4.9 SSE 13 19 7 10 1023.5 - 0.0
20/03:00pm 15.8 12.5 6.3 53 4.6 SSE 13 17 7 9 1023.6 1023.9 0.0
20/02:30pm 15.8 12.4 6.0 52 4.8 SSE 13 20 7 11 1023.4 - 0.0
20/02:00pm 15.5 11.9 5.1 50 5.0 SE 13 17 7 9 1023.6 1023.9 0.0
20/01:30pm 15.3 11.2 4.4 48 5.1 SE 15 20 8 11 1023.7 - 0.0

Other Formats:

Comma delimited format used in spreadsheet applications
http://www.bom.gov.au/fwo/IDN60801/IDN60801.94715.axf

JavaScript Object Notation format (JSON) in row-major order
http://www.bom.gov.au/fwo/IDN60801/IDN60801.94715.json